sensor_id;sensor_type;location;lat;lon;timestamp;pressure;altitude;pressure_sealevel;temperature;humidity
12360;BME280;6244;51.460;7.090;2024-01-16T00:01:00;99793.56;;;-0.36;100.00
12360;BME280;6244;51.460;7.090;2024-01-16T00:05:58;99808.91;;;-0.31;100.00
12360;BME280;6244;51.460;7.090;2024-01-16T00:10:55;99815.72;;;-0.28;100.00
12360;BME280;6244;51.460;7.090;2024-01-16T00:15:52;99818.31;;;-0.28;100.00
12360;BME280;6244;51.460;7.090;2024-01-16T00:20:50;99822.44;;;-0.20;100.00
12360;BME280;6244;51.460;7.090;2024-01-16T00:25:48;99830.28;;;-0.24;100.00
12360;BME280;6244;51.460;7.090;2024-01-16T00:30:45;99788.31;;;-0.33;100.00
12360;BME280;6244;51.460;7.090;2024-01-16T00:35:41;99824.22;;;-0.25;100.00
12360;BME280;6244;51.460;7.090;2024-01-16T00:40:38;99829.38;;;-0.25;100.00
12360;BME280;6244;51.460;7.090;2024-01-16T00:45:36;99831.22;;;-0.30;100.00
12360;BME280;6244;51.460;7.090;2024-01-16T00:50:32;99841.44;;;-0.24;100.00
12360;BME280;6244;51.460;7.090;2024-01-16T00:55:29;99839.78;;;-0.28;100.00
12360;BME280;6244;51.460;7.090;2024-01-16T01:00:26;99852.69;;;-0.30;100.00
12360;BME280;6244;51.460;7.090;2024-01-16T01:05:26;99844.25;;;-0.36;100.00
12360;BME280;6244;51.460;7.090;2024-01-16T01:10:23;99857.22;;;-0.41;100.00
12360;BME280;6244;51.460;7.090;2024-01-16T01:15:20;99854.66;;;-0.42;100.00
12360;BME280;6244;51.460;7.090;2024-01-16T01:20:18;99876.06;;;-0.37;100.00
12360;BME280;6244;51.460;7.090;2024-01-16T01:25:16;99863.97;;;-0.34;100.00
12360;BME280;6244;51.460;7.090;2024-01-16T01:30:13;99883.69;;;-0.33;100.00
12360;BME280;6244;51.460;7.090;2024-01-16T01:35:10;99878.63;;;-0.37;100.00
12360;BME280;6244;51.460;7.090;2024-01-16T01:40:08;99876.91;;;-0.38;100.00
12360;BME280;6244;51.460;7.090;2024-01-16T01:45:09;99882.91;;;-0.36;100.00
12360;BME280;6244;51.460;7.090;2024-01-16T01:50:08;99886.28;;;-0.33;100.00
12360;BME280;6244;51.460;7.090;2024-01-16T01:55:10;99887.19;;;-0.35;100.00
12360;BME280;6244;51.460;7.090;2024-01-16T02:00:10;99874.38;;;-0.40;100.00
12360;BME280;6244;51.460;7.090;2024-01-16T02:05:07;99883.03;;;-0.44;100.00
12360;BME280;6244;51.460;7.090;2024-01-16T02:10:04;99872.00;;;-0.50;100.00
12360;BME280;6244;51.460;7.090;2024-01-16T02:15:01;99888.09;;;-0.39;100.00
12360;BME280;6244;51.460;7.090;2024-01-16T02:20:02;99888.88;;;-0.34;100.00
12360;BME280;6244;51.460;7.090;2024-01-16T02:25:01;99897.50;;;-0.35;100.00
12360;BME280;6244;51.460;7.090;2024-01-16T02:29:57;99896.63;;;-0.34;100.00
12360;BME280;6244;51.460;7.090;2024-01-16T02:34:54;99877.72;;;-0.35;100.00
12360;BME280;6244;51.460;7.090;2024-01-16T02:39:50;99892.34;;;-0.35;100.00
12360;BME280;6244;51.460;7.090;2024-01-16T02:44:48;99891.47;;;-0.34;100.00
12360;BME280;6244;51.460;7.090;2024-01-16T02:49:45;99893.94;;;-0.30;100.00
12360;BME280;6244;51.460;7.090;2024-01-16T02:54:41;99894.84;;;-0.32;100.00
12360;BME280;6244;51.460;7.090;2024-01-16T02:59:38;99877.63;;;-0.30;100.00
12360;BME280;6244;51.460;7.090;2024-01-16T03:04:36;99877.53;;;-0.25;100.00
12360;BME280;6244;51.460;7.090;2024-01-16T03:09:32;99869.69;;;-0.19;100.00
12360;BME280;6244;51.460;7.090;2024-01-16T03:14:29;99872.34;;;-0.22;100.00
12360;BME280;6244;51.460;7.090;2024-01-16T03:19:29;99863.84;;;-0.29;100.00
12360;BME280;6244;51.460;7.090;2024-01-16T03:24:27;99878.34;;;-0.22;100.00
12360;BME280;6244;51.460;7.090;2024-01-16T03:29:24;99874.88;;;-0.21;100.00
12360;BME280;6244;51.460;7.090;2024-01-16T03:34:20;99874.72;;;-0.13;100.00
12360;BME280;6244;51.460;7.090;2024-01-16T03:39:17;99867.88;;;-0.16;100.00
12360;BME280;6244;51.460;7.090;2024-01-16T03:44:15;99873.84;;;-0.14;100.00
12360;BME280;6244;51.460;7.090;2024-01-16T03:49:11;99879.88;;;-0.13;100.00
12360;BME280;6244;51.460;7.090;2024-01-16T03:54:08;99890.25;;;-0.16;100.00
12360;BME280;6244;51.460;7.090;2024-01-16T03:59:05;99894.44;;;-0.11;100.00
12360;BME280;6244;51.460;7.090;2024-01-16T04:04:03;99891.84;;;-0.09;100.00
12360;BME280;6244;51.460;7.090;2024-01-16T04:09:01;99886.69;;;-0.09;100.00
12360;BME280;6244;51.460;7.090;2024-01-16T04:14:00;99888.44;;;-0.11;100.00
12360;BME280;6244;51.460;7.090;2024-01-16T04:18:56;99882.50;;;-0.16;100.00
12360;BME280;6244;51.460;7.090;2024-01-16T04:23:54;99893.59;;;-0.13;100.00
12360;BME280;6244;51.460;7.090;2024-01-16T04:28:50;99877.41;;;-0.19;100.00
12360;BME280;6244;51.460;7.090;2024-01-16T04:33:48;99875.50;;;-0.10;100.00
12360;BME280;6244;51.460;7.090;2024-01-16T04:38:44;99873.94;;;-0.17;100.00
12360;BME280;6244;51.460;7.090;2024-01-16T04:43:42;99872.19;;;-0.16;100.00
12360;BME280;6244;51.460;7.090;2024-01-16T04:48:40;99866.13;;;-0.12;100.00
12360;BME280;6244;51.460;7.090;2024-01-16T04:53:36;99876.44;;;-0.14;100.00
12360;BME280;6244;51.460;7.090;2024-01-16T04:58:33;99876.44;;;-0.14;100.00
12360;BME280;6244;51.460;7.090;2024-01-16T05:03:30;99882.44;;;-0.13;100.00
12360;BME280;6244;51.460;7.090;2024-01-16T05:08:27;99874.69;;;-0.12;100.00
12360;BME280;6244;51.460;7.090;2024-01-16T05:13:23;99866.00;;;-0.08;100.00
12360;BME280;6244;51.460;7.090;2024-01-16T05:18:20;99865.97;;;-0.06;100.00
12360;BME280;6244;51.460;7.090;2024-01-16T05:23:18;99857.47;;;-0.10;100.00
12360;BME280;6244;51.460;7.090;2024-01-16T05:28:15;99861.81;;;-0.12;100.00
12360;BME280;6244;51.460;7.090;2024-01-16T05:33:11;99862.59;;;-0.08;100.00
12360;BME280;6244;51.460;7.090;2024-01-16T05:38:08;99866.09;;;-0.11;100.00
12360;BME280;6244;51.460;7.090;2024-01-16T05:43:08;99848.06;;;-0.12;100.00
12360;BME280;6244;51.460;7.090;2024-01-16T05:48:05;99850.66;;;-0.14;100.00
12360;BME280;6244;51.460;7.090;2024-01-16T05:53:03;99845.63;;;-0.20;100.00
12360;BME280;6244;51.460;7.090;2024-01-16T05:58:00;99845.75;;;-0.24;100.00
12360;BME280;6244;51.460;7.090;2024-01-16T06:02:58;99837.22;;;-0.30;100.00
12360;BME280;6244;51.460;7.090;2024-01-16T06:07:54;99839.81;;;-0.30;100.00
12360;BME280;6244;51.460;7.090;2024-01-16T06:12:51;99845.78;;;-0.27;100.00
12360;BME280;6244;51.460;7.090;2024-01-16T06:17:48;99839.69;;;-0.25;100.00
12360;BME280;6244;51.460;7.090;2024-01-16T06:22:46;99837.06;;;-0.20;100.00
12360;BME280;6244;51.460;7.090;2024-01-16T06:27:42;99843.91;;;-0.19;100.00
12360;BME280;6244;51.460;7.090;2024-01-16T06:32:39;99838.81;;;-0.22;100.00
12360;BME280;6244;51.460;7.090;2024-01-16T06:37:36;99844.16;;;-0.32;100.00
12360;BME280;6244;51.460;7.090;2024-01-16T06:42:34;99850.84;;;-0.23;100.00
12360;BME280;6244;51.460;7.090;2024-01-16T06:47:31;99846.59;;;-0.24;100.00
12360;BME280;6244;51.460;7.090;2024-01-16T06:52:27;99856.09;;;-0.27;100.00
12360;BME280;6244;51.460;7.090;2024-01-16T06:57:24;99864.78;;;-0.32;100.00
12360;BME280;6244;51.460;7.090;2024-01-16T07:02:22;99861.44;;;-0.38;100.00
12360;BME280;6244;51.460;7.090;2024-01-16T07:07:18;99866.03;;;-0.52;100.00
12360;BME280;6244;51.460;7.090;2024-01-16T07:12:15;99864.38;;;-0.56;100.00
12360;BME280;6244;51.460;7.090;2024-01-16T07:17:12;99879.94;;;-0.61;100.00
12360;BME280;6244;51.460;7.090;2024-01-16T07:22:09;99877.56;;;-0.72;100.00
12360;BME280;6244;51.460;7.090;2024-01-16T07:27:06;99885.31;;;-0.75;100.00
12360;BME280;6244;51.460;7.090;2024-01-16T07:32:03;99888.78;;;-0.77;100.00
12360;BME280;6244;51.460;7.090;2024-01-16T07:37:00;99893.09;;;-0.78;100.00
12360;BME280;6244;51.460;7.090;2024-01-16T07:41:58;99898.34;;;-0.82;100.00
12360;BME280;6244;51.460;7.090;2024-01-16T07:46:54;99903.41;;;-0.78;100.00
12360;BME280;6244;51.460;7.090;2024-01-16T07:51:51;99908.59;;;-0.79;100.00
12360;BME280;6244;51.460;7.090;2024-01-16T07:56:47;99899.97;;;-0.78;100.00
12360;BME280;6244;51.460;7.090;2024-01-16T08:01:45;99900.78;;;-0.76;100.00
12360;BME280;6244;51.460;7.090;2024-01-16T08:06:42;99903.44;;;-0.79;100.00
12360;BME280;6244;51.460;7.090;2024-01-16T08:11:39;99901.69;;;-0.77;100.00
12360;BME280;6244;51.460;7.090;2024-01-16T08:16:35;99913.69;;;-0.78;100.00
12360;BME280;6244;51.460;7.090;2024-01-16T08:21:33;99905.06;;;-0.74;100.00
12360;BME280;6244;51.460;7.090;2024-01-16T08:26:30;99900.75;;;-0.73;100.00
12360;BME280;6244;51.460;7.090;2024-01-16T08:31:26;99904.22;;;-0.76;100.00
12360;BME280;6244;51.460;7.090;2024-01-16T08:36:23;99905.91;;;-0.75;100.00
12360;BME280;6244;51.460;7.090;2024-01-16T08:41:21;99920.31;;;-0.62;98.00
12360;BME280;6244;51.460;7.090;2024-01-16T08:46:17;99920.34;;;-0.65;96.37
12360;BME280;6244;51.460;7.090;2024-01-16T08:51:14;99918.66;;;-0.66;95.33
12360;BME280;6244;51.460;7.090;2024-01-16T08:56:11;99923.00;;;-0.69;95.17
12360;BME280;6244;51.460;7.090;2024-01-16T09:01:09;99924.59;;;-0.62;94.41
12360;BME280;6244;51.460;7.090;2024-01-16T09:06:06;99924.53;;;-0.57;93.48
12360;BME280;6244;51.460;7.090;2024-01-16T09:11:03;99917.75;;;-0.63;91.87
12360;BME280;6244;51.460;7.090;2024-01-16T09:16:00;99939.13;;;-0.58;92.20
12360;BME280;6244;51.460;7.090;2024-01-16T09:20:58;99920.97;;;-0.52;91.07
12360;BME280;6244;51.460;7.090;2024-01-16T09:25:54;99920.09;;;-0.51;89.84
12360;BME280;6244;51.460;7.090;2024-01-16T09:30:51;99918.22;;;-0.41;89.45
12360;BME280;6244;51.460;7.090;2024-01-16T09:35:47;99925.06;;;-0.40;88.41
12360;BME280;6244;51.460;7.090;2024-01-16T09:40:46;99924.09;;;-0.33;88.21
12360;BME280;6244;51.460;7.090;2024-01-16T09:45:43;99922.28;;;-0.30;87.64
12360;BME280;6244;51.460;7.090;2024-01-16T09:50:41;99923.25;;;-0.34;87.00
12360;BME280;6244;51.460;7.090;2024-01-16T09:55:37;99919.72;;;-0.30;87.54
12360;BME280;6244;51.460;7.090;2024-01-16T10:00:35;99915.31;;;-0.23;86.82
12360;BME280;6244;51.460;7.090;2024-01-16T10:05:32;99917.69;;;-0.12;85.57
12360;BME280;6244;51.460;7.090;2024-01-16T10:10:29;99909.78;;;-0.05;85.00
12360;BME280;6244;51.460;7.090;2024-01-16T10:15:25;99906.44;;;-0.08;85.01
12360;BME280;6244;51.460;7.090;2024-01-16T10:20:33;99906.25;;;0.01;84.73
12360;BME280;6244;51.460;7.090;2024-01-16T10:25:31;99901.00;;;0.06;84.79
12360;BME280;6244;51.460;7.090;2024-01-16T10:30:28;99895.63;;;0.16;83.49
12360;BME280;6244;51.460;7.090;2024-01-16T10:35:24;99898.91;;;0.23;82.43
12360;BME280;6244;51.460;7.090;2024-01-16T10:40:23;99887.91;;;0.15;81.50
12360;BME280;6244;51.460;7.090;2024-01-16T10:45:20;99871.47;;;0.19;81.88
12360;BME280;6244;51.460;7.090;2024-01-16T10:50:17;99878.31;;;0.20;81.38
12360;BME280;6244;51.460;7.090;2024-01-16T10:55:19;99880.72;;;0.29;81.01
12360;BME280;6244;51.460;7.090;2024-01-16T11:00:20;99881.50;;;0.33;80.58
12360;BME280;6244;51.460;7.090;2024-01-16T11:05:17;99877.13;;;0.35;79.89
12360;BME280;6244;51.460;7.090;2024-01-16T11:10:14;99863.00;;;0.12;79.63
12360;BME280;6244;51.460;7.090;2024-01-16T11:15:11;99868.44;;;0.00;81.18
12360;BME280;6244;51.460;7.090;2024-01-16T11:20:11;99861.75;;;-0.09;81.94
12360;BME280;6244;51.460;7.090;2024-01-16T11:25:10;99878.81;;;-0.03;81.32
12360;BME280;6244;51.460;7.090;2024-01-16T11:30:08;99871.34;;;0.25;79.64
12360;BME280;6244;51.460;7.090;2024-01-16T11:35:07;99871.75;;;0.45;78.52
12360;BME280;6244;51.460;7.090;2024-01-16T11:40:24;99874.91;;;0.58;78.23
12360;BME280;6244;51.460;7.090;2024-01-16T11:45:52;99866.84;;;0.72;79.23
12360;BME280;6244;51.460;7.090;2024-01-16T11:50:49;99854.72;;;1.74;73.20
12360;BME280;6244;51.460;7.090;2024-01-16T11:55:54;99838.94;;;0.86;75.54
12360;BME280;6244;51.460;7.090;2024-01-16T12:00:59;99839.75;;;2.43;69.64
12360;BME280;6244;51.460;7.090;2024-01-16T12:05:55;99822.75;;;3.64;62.47
12360;BME280;6244;51.460;7.090;2024-01-16T12:10:53;99820.28;;;4.29;59.12
12360;BME280;6244;51.460;7.090;2024-01-16T12:15:59;99813.53;;;4.47;56.84
12360;BME280;6244;51.460;7.090;2024-01-16T12:20:56;99807.00;;;3.68;58.46
12360;BME280;6244;51.460;7.090;2024-01-16T12:25:55;99797.00;;;2.58;64.17
12360;BME280;6244;51.460;7.090;2024-01-16T12:30:54;99790.44;;;2.74;63.98
12360;BME280;6244;51.460;7.090;2024-01-16T12:36:00;99778.22;;;2.51;65.18
12360;BME280;6244;51.460;7.090;2024-01-16T12:40:59;99767.63;;;3.10;62.24
12360;BME280;6244;51.460;7.090;2024-01-16T12:45:57;99770.88;;;2.90;61.38
12360;BME280;6244;51.460;7.090;2024-01-16T12:50:59;99773.03;;;3.28;62.10
12360;BME280;6244;51.460;7.090;2024-01-16T12:56:01;99764.53;;;3.24;60.21
12360;BME280;6244;51.460;7.090;2024-01-16T13:01:22;99765.91;;;2.58;63.97
12360;BME280;6244;51.460;7.090;2024-01-16T13:06:19;99763.19;;;2.08;64.64
12360;BME280;6244;51.460;7.090;2024-01-16T13:11:17;99759.25;;;1.67;66.00
12360;BME280;6244;51.460;7.090;2024-01-16T13:16:16;99764.56;;;1.31;68.43
12360;BME280;6244;51.460;7.090;2024-01-16T13:21:13;99766.34;;;1.29;68.83
12360;BME280;6244;51.460;7.090;2024-01-16T13:26:10;99773.63;;;1.46;68.68
12360;BME280;6244;51.460;7.090;2024-01-16T13:31:09;99755.13;;;1.61;68.14
12360;BME280;6244;51.460;7.090;2024-01-16T13:36:05;99762.59;;;1.41;69.58
12360;BME280;6244;51.460;7.090;2024-01-16T13:41:03;99758.56;;;1.31;70.47
12360;BME280;6244;51.460;7.090;2024-01-16T13:45:59;99746.88;;;1.47;70.76
12360;BME280;6244;51.460;7.090;2024-01-16T13:50:57;99734.53;;;1.57;69.95
12360;BME280;6244;51.460;7.090;2024-01-16T13:55:54;99726.28;;;1.73;68.57
12360;BME280;6244;51.460;7.090;2024-01-16T14:00:50;99726.78;;;1.57;69.27
12360;BME280;6244;51.460;7.090;2024-01-16T14:05:47;99716.75;;;1.46;68.83
12360;BME280;6244;51.460;7.090;2024-01-16T14:10:45;99719.75;;;1.32;69.13
12360;BME280;6244;51.460;7.090;2024-01-16T14:15:41;99725.59;;;1.39;70.63
12360;BME280;6244;51.460;7.090;2024-01-16T14:20:38;99736.97;;;1.32;69.79
12360;BME280;6244;51.460;7.090;2024-01-16T14:25:34;99732.91;;;1.25;70.09
12360;BME280;6244;51.460;7.090;2024-01-16T14:30:35;99720.28;;;1.14;68.45
12360;BME280;6244;51.460;7.090;2024-01-16T14:35:32;99725.50;;;0.80;69.33
12360;BME280;6244;51.460;7.090;2024-01-16T14:40:28;99723.34;;;0.63;70.73
12360;BME280;6244;51.460;7.090;2024-01-16T14:45:25;99721.09;;;0.51;71.09
12360;BME280;6244;51.460;7.090;2024-01-16T14:50:24;99721.13;;;0.48;71.49
12360;BME280;6244;51.460;7.090;2024-01-16T14:55:20;99723.22;;;0.34;71.99
12360;BME280;6244;51.460;7.090;2024-01-16T15:00:18;99712.16;;;0.28;71.86
12360;BME280;6244;51.460;7.090;2024-01-16T15:05:19;99714.03;;;0.22;72.69
12360;BME280;6244;51.460;7.090;2024-01-16T15:10:17;99707.19;;;0.21;73.51
12360;BME280;6244;51.460;7.090;2024-01-16T15:15:15;99709.84;;;0.18;73.35
12360;BME280;6244;51.460;7.090;2024-01-16T15:20:11;99703.97;;;0.11;74.17
12360;BME280;6244;51.460;7.090;2024-01-16T15:25:08;99691.81;;;0.16;73.88
12360;BME280;6244;51.460;7.090;2024-01-16T15:30:07;99685.91;;;0.11;74.75
12360;BME280;6244;51.460;7.090;2024-01-16T15:35:06;99692.81;;;0.11;74.95
12360;BME280;6244;51.460;7.090;2024-01-16T15:40:04;99694.72;;;0.03;74.25
12360;BME280;6244;51.460;7.090;2024-01-16T15:45:02;99695.66;;;-0.02;75.05
12360;BME280;6244;51.460;7.090;2024-01-16T15:50:01;99710.66;;;-0.17;76.08
12360;BME280;6244;51.460;7.090;2024-01-16T15:54:58;99710.00;;;-0.27;76.06
12360;BME280;6244;51.460;7.090;2024-01-16T15:59:55;99716.88;;;-0.27;76.15
12360;BME280;6244;51.460;7.090;2024-01-16T16:04:51;99716.19;;;-0.34;75.93
12360;BME280;6244;51.460;7.090;2024-01-16T16:09:50;99720.81;;;-0.50;76.25
12360;BME280;6244;51.460;7.090;2024-01-16T16:14:47;99734.81;;;-0.63;76.85
12360;BME280;6244;51.460;7.090;2024-01-16T16:19:43;99735.84;;;-0.70;77.23
12360;BME280;6244;51.460;7.090;2024-01-16T16:24:42;99739.44;;;-0.79;77.22
12360;BME280;6244;51.460;7.090;2024-01-16T16:29:40;99729.38;;;-0.91;77.87
12360;BME280;6244;51.460;7.090;2024-01-16T16:34:36;99737.94;;;-0.91;77.46
12360;BME280;6244;51.460;7.090;2024-01-16T16:39:33;99734.69;;;-1.00;77.68
12360;BME280;6244;51.460;7.090;2024-01-16T16:44:29;99741.72;;;-1.08;78.14
12360;BME280;6244;51.460;7.090;2024-01-16T16:49:27;99743.50;;;-1.10;77.85
12360;BME280;6244;51.460;7.090;2024-01-16T16:54:24;99746.06;;;-1.12;77.94
12360;BME280;6244;51.460;7.090;2024-01-16T16:59:20;99736.66;;;-1.13;77.94
12360;BME280;6244;51.460;7.090;2024-01-16T17:04:17;99747.06;;;-1.19;78.15
12360;BME280;6244;51.460;7.090;2024-01-16T17:09:15;99736.00;;;-1.23;78.74
12360;BME280;6244;51.460;7.090;2024-01-16T17:14:14;99732.59;;;-1.26;78.36
12360;BME280;6244;51.460;7.090;2024-01-16T17:19:11;99730.97;;;-1.30;78.54
12360;BME280;6244;51.460;7.090;2024-01-16T17:24:08;99725.84;;;-1.32;78.79
12360;BME280;6244;51.460;7.090;2024-01-16T17:29:06;99717.34;;;-1.35;78.60
12360;BME280;6244;51.460;7.090;2024-01-16T17:34:03;99714.75;;;-1.34;78.33
12360;BME280;6244;51.460;7.090;2024-01-16T17:38:59;99716.50;;;-1.36;78.48
12360;BME280;6244;51.460;7.090;2024-01-16T17:43:56;99714.88;;;-1.41;78.93
12360;BME280;6244;51.460;7.090;2024-01-16T17:48:54;99708.03;;;-1.42;79.22
12360;BME280;6244;51.460;7.090;2024-01-16T17:53:51;99703.00;;;-1.50;79.39
12360;BME280;6244;51.460;7.090;2024-01-16T17:58:51;99703.84;;;-1.48;79.64
12360;BME280;6244;51.460;7.090;2024-01-16T18:03:49;99694.41;;;-1.49;79.73
12360;BME280;6244;51.460;7.090;2024-01-16T18:08:48;99687.56;;;-1.50;79.72
12360;BME280;6244;51.460;7.090;2024-01-16T18:13:44;99675.56;;;-1.51;79.39
12360;BME280;6244;51.460;7.090;2024-01-16T18:18:41;99664.47;;;-1.53;80.02
12360;BME280;6244;51.460;7.090;2024-01-16T18:23:38;99654.22;;;-1.55;79.89
12360;BME280;6244;51.460;7.090;2024-01-16T18:28:37;99643.13;;;-1.58;80.34
12360;BME280;6244;51.460;7.090;2024-01-16T18:33:35;99654.28;;;-1.58;80.30
12360;BME280;6244;51.460;7.090;2024-01-16T18:38:33;99656.03;;;-1.61;80.25
12360;BME280;6244;51.460;7.090;2024-01-16T18:43:30;99650.06;;;-1.63;80.14
12360;BME280;6244;51.460;7.090;2024-01-16T18:48:28;99630.41;;;-1.66;80.81
12360;BME280;6244;51.460;7.090;2024-01-16T18:53:25;99620.91;;;-1.62;81.24
12360;BME280;6244;51.460;7.090;2024-01-16T18:58:23;99622.72;;;-1.67;81.23
12360;BME280;6244;51.460;7.090;2024-01-16T19:03:20;99612.38;;;-1.64;81.14
12360;BME280;6244;51.460;7.090;2024-01-16T19:08:19;99617.56;;;-1.67;81.37
12360;BME280;6244;51.460;7.090;2024-01-16T19:13:19;99612.59;;;-1.77;81.75
12360;BME280;6244;51.460;7.090;2024-01-16T19:18:15;99621.91;;;-1.69;82.10
12360;BME280;6244;51.460;7.090;2024-01-16T19:23:12;99612.50;;;-1.70;82.55
12360;BME280;6244;51.460;7.090;2024-01-16T19:28:10;99614.16;;;-1.68;82.44
12360;BME280;6244;51.460;7.090;2024-01-16T19:33:06;99599.66;;;-1.72;82.47
12360;BME280;6244;51.460;7.090;2024-01-16T19:38:03;99593.69;;;-1.74;82.53
12360;BME280;6244;51.460;7.090;2024-01-16T19:43:00;99593.03;;;-1.84;82.95
12360;BME280;6244;51.460;7.090;2024-01-16T19:48:01;99592.22;;;-1.86;83.05
12360;BME280;6244;51.460;7.090;2024-01-16T19:52:58;99581.78;;;-1.80;82.97
12360;BME280;6244;51.460;7.090;2024-01-16T19:57:57;99569.88;;;-1.84;83.46
12360;BME280;6244;51.460;7.090;2024-01-16T20:02:54;99578.47;;;-1.85;82.62
12360;BME280;6244;51.460;7.090;2024-01-16T20:07:53;99565.63;;;-1.86;83.08
12360;BME280;6244;51.460;7.090;2024-01-16T20:12:50;99552.75;;;-1.85;83.07
12360;BME280;6244;51.460;7.090;2024-01-16T20:17:47;99541.66;;;-1.88;82.49
12360;BME280;6244;51.460;7.090;2024-01-16T20:22:44;99534.88;;;-1.91;82.32
12360;BME280;6244;51.460;7.090;2024-01-16T20:27:43;99534.16;;;-1.97;82.49
12360;BME280;6244;51.460;7.090;2024-01-16T20:32:40;99535.06;;;-2.01;82.60
12360;BME280;6244;51.460;7.090;2024-01-16T20:37:36;99534.16;;;-1.97;82.45
12360;BME280;6244;51.460;7.090;2024-01-16T20:42:33;99526.44;;;-1.99;82.01
12360;BME280;6244;51.460;7.090;2024-01-16T20:47:31;99528.25;;;-2.04;82.24
12360;BME280;6244;51.460;7.090;2024-01-16T20:52:27;99530.03;;;-2.08;82.03
12360;BME280;6244;51.460;7.090;2024-01-16T20:57:24;99524.94;;;-2.09;81.78
12360;BME280;6244;51.460;7.090;2024-01-16T21:02:21;99525.75;;;-2.07;82.31
12360;BME280;6244;51.460;7.090;2024-01-16T21:07:19;99525.75;;;-2.07;82.18
12360;BME280;6244;51.460;7.090;2024-01-16T21:12:17;99519.81;;;-2.11;82.31
12360;BME280;6244;51.460;7.090;2024-01-16T21:17:14;99512.03;;;-2.06;81.49
12360;BME280;6244;51.460;7.090;2024-01-16T21:22:10;99510.31;;;-2.07;81.46
12360;BME280;6244;51.460;7.090;2024-01-16T21:27:09;99505.25;;;-2.10;81.27
12360;BME280;6244;51.460;7.090;2024-01-16T21:32:09;99499.25;;;-2.12;81.65
12360;BME280;6244;51.460;7.090;2024-01-16T21:37:06;99500.00;;;-2.05;80.80
12360;BME280;6244;51.460;7.090;2024-01-16T21:42:03;99488.09;;;-2.11;81.08
12360;BME280;6244;51.460;7.090;2024-01-16T21:47:01;99477.66;;;-2.02;81.18
12360;BME280;6244;51.460;7.090;2024-01-16T21:51:58;99464.16;;;-2.13;80.65
12360;BME280;6244;51.460;7.090;2024-01-16T21:56:56;99451.56;;;-2.27;82.01
12360;BME280;6244;51.460;7.090;2024-01-16T22:01:53;99434.50;;;-2.29;82.60
12360;BME280;6244;51.460;7.090;2024-01-16T22:06:51;99420.84;;;-2.31;83.13
12360;BME280;6244;51.460;7.090;2024-01-16T22:11:48;99412.34;;;-2.35;82.85
12360;BME280;6244;51.460;7.090;2024-01-16T22:16:44;99411.34;;;-2.28;82.12
12360;BME280;6244;51.460;7.090;2024-01-16T22:21:41;99405.50;;;-2.34;82.82
12360;BME280;6244;51.460;7.090;2024-01-16T22:26:39;99408.22;;;-2.44;82.72
12360;BME280;6244;51.460;7.090;2024-01-16T22:31:39;99398.16;;;-2.54;83.39
12360;BME280;6244;51.460;7.090;2024-01-16T22:36:38;99395.47;;;-2.50;83.25
12360;BME280;6244;51.460;7.090;2024-01-16T22:41:43;99374.19;;;-2.55;83.12
12360;BME280;6244;51.460;7.090;2024-01-16T22:46:40;99383.47;;;-2.49;82.93
12360;BME280;6244;51.460;7.090;2024-01-16T22:51:36;99372.34;;;-2.47;83.48
12360;BME280;6244;51.460;7.090;2024-01-16T22:56:33;99370.00;;;-2.59;82.66
12360;BME280;6244;51.460;7.090;2024-01-16T23:01:31;99353.66;;;-2.55;83.35
12360;BME280;6244;51.460;7.090;2024-01-16T23:06:27;99337.34;;;-2.54;83.31
12360;BME280;6244;51.460;7.090;2024-01-16T23:11:24;99338.09;;;-2.49;83.10
12360;BME280;6244;51.460;7.090;2024-01-16T23:16:21;99333.91;;;-2.53;82.80
12360;BME280;6244;51.460;7.090;2024-01-16T23:21:19;99334.84;;;-2.57;82.86
12360;BME280;6244;51.460;7.090;2024-01-16T23:26:17;99337.25;;;-2.48;82.66
12360;BME280;6244;51.460;7.090;2024-01-16T23:31:14;99318.78;;;-2.67;82.55
12360;BME280;6244;51.460;7.090;2024-01-16T23:36:11;99312.75;;;-2.66;83.20
12360;BME280;6244;51.460;7.090;2024-01-16T23:41:09;99301.16;;;-2.42;83.37
12360;BME280;6244;51.460;7.090;2024-01-16T23:46:06;99303.06;;;-2.51;81.83
12360;BME280;6244;51.460;7.090;2024-01-16T23:51:03;99288.91;;;-2.71;82.55
12360;BME280;6244;51.460;7.090;2024-01-16T23:55:59;99279.88;;;-2.91;83.55
